Puvirnituq Airport

CYPX | YPX

Puvirnituq , Quebec , Canada

Thursday, October 24th, 2019 | 01:38

Weather

CYPX 240500Z AUTO 15008KT 9SM OVC005 06/06 A2937 RMK SLP950

Charts

No Charts Available

Gates

No Gates Available

Runways

1 Available

Events

No events for this airport


New event